createdAt,value
2023-04-15T00:01:51.920Z,96.29
2023-04-15T00:04:18.491Z,96.82
2023-04-15T00:06:50.406Z,96.85
2023-04-15T00:09:16.768Z,96.60
2023-04-15T00:11:43.202Z,96.50
2023-04-15T00:14:09.661Z,96.86
2023-04-15T00:16:36.124Z,96.41
2023-04-15T00:19:03.830Z,96.50
2023-04-15T00:21:30.529Z,96.43
2023-04-15T00:23:56.904Z,96.63
2023-04-15T00:26:23.403Z,96.28
2023-04-15T00:28:49.923Z,96.53
2023-04-15T00:31:22.328Z,96.82
2023-04-15T00:33:48.835Z,96.89
2023-04-15T00:36:18.015Z,97.18
2023-04-15T00:38:44.426Z,97.25
2023-04-15T00:41:11.505Z,96.38
2023-04-15T00:43:37.889Z,97.46
2023-04-15T00:46:04.642Z,96.81
2023-04-15T00:48:31.503Z,97.20
2023-04-15T00:50:58.141Z,96.56
2023-04-15T00:53:25.918Z,96.24
2023-04-15T00:55:52.831Z,97.02
2023-04-15T00:58:20.299Z,97.48
2023-04-15T01:00:47.171Z,97.55
2023-04-15T01:03:13.885Z,97.61
2023-04-15T01:05:40.352Z,97.84
2023-04-15T01:08:06.889Z,97.38
2023-04-15T01:10:35.010Z,96.72
2023-04-15T01:13:02.927Z,97.16
2023-04-15T01:15:29.411Z,97.22
2023-04-15T01:17:57.192Z,96.85
2023-04-15T01:20:23.816Z,97.53
2023-04-15T01:22:50.623Z,97.11
2023-04-15T01:25:19.058Z,96.95
2023-04-15T01:27:46.905Z,97.51
2023-04-15T01:30:13.375Z,97.66
2023-04-15T01:32:39.885Z,97.13
2023-04-15T01:35:06.799Z,97.56
2023-04-15T01:37:33.662Z,97.69
2023-04-15T01:40:00.103Z,97.01
2023-04-15T01:42:27.153Z,97.01
2023-04-15T01:44:54.927Z,97.10
2023-04-15T01:47:21.357Z,97.04
2023-04-15T01:49:47.850Z,97.21
2023-04-15T01:52:14.235Z,97.68
2023-04-15T01:54:40.689Z,97.54
2023-04-15T01:57:07.087Z,98.06
2023-04-15T01:59:34.321Z,98.18
2023-04-15T02:02:02.076Z,98.05
2023-04-15T02:04:28.652Z,98.10
2023-04-15T02:06:57.438Z,97.40
2023-04-15T02:09:23.865Z,97.85
2023-04-15T02:11:50.760Z,98.08
2023-04-15T02:14:17.796Z,98.17
2023-04-15T02:16:44.252Z,98.45
2023-04-15T02:19:12.002Z,98.79
2023-04-15T02:21:38.399Z,98.67
2023-04-15T02:24:05.073Z,97.66
2023-04-15T02:26:32.400Z,98.26
2023-04-15T02:28:59.188Z,98.11
2023-04-15T02:31:26.222Z,98.62
2023-04-15T02:33:52.781Z,98.41
2023-04-15T02:36:20.672Z,98.07
2023-04-15T02:38:47.120Z,99.06
2023-04-15T02:41:15.069Z,98.34
2023-04-15T02:43:43.736Z,97.89
2023-04-15T02:46:10.204Z,98.17
2023-04-15T02:48:37.955Z,98.30
2023-04-15T02:51:14.933Z,97.90
2023-04-15T02:53:42.968Z,98.22
2023-04-15T02:56:09.711Z,98.20
2023-04-15T02:58:36.205Z,98.23
2023-04-15T03:01:02.832Z,98.27
2023-04-15T03:03:29.371Z,98.17
2023-04-15T03:05:56.113Z,98.14
2023-04-15T03:08:22.571Z,97.56
2023-04-15T03:10:50.610Z,98.56
2023-04-15T03:13:17.265Z,97.90
2023-04-15T03:15:43.849Z,98.46
2023-04-15T03:18:10.423Z,98.67
2023-04-15T03:20:36.870Z,98.35
2023-04-15T03:23:03.313Z,97.89
2023-04-15T03:25:29.701Z,98.29
2023-04-15T03:27:57.405Z,98.29
2023-04-15T03:30:24.041Z,98.33
2023-04-15T03:32:50.820Z,98.24
2023-04-15T03:35:17.505Z,97.87
2023-04-15T03:37:43.977Z,97.79
2023-04-15T03:40:11.181Z,98.29
2023-04-15T03:42:37.680Z,98.52
2023-04-15T03:45:06.943Z,98.34
2023-04-15T03:47:33.410Z,98.20
2023-04-15T03:49:59.862Z,98.52
2023-04-15T03:52:26.293Z,98.55
2023-04-15T03:54:52.730Z,98.17
2023-04-15T03:57:19.112Z,98.54
2023-04-15T03:59:45.493Z,98.75
2023-04-15T04:02:13.285Z,98.90
2023-04-15T04:04:39.780Z,98.17
2023-04-15T04:07:06.258Z,98.56
2023-04-15T04:09:32.666Z,99.17
2023-04-15T04:11:59.078Z,98.46
2023-04-15T04:14:25.484Z,98.84
2023-04-15T04:16:51.941Z,98.58
2023-04-15T04:19:19.681Z,98.66
2023-04-15T04:21:46.150Z,98.93
2023-04-15T04:24:12.585Z,98.67
2023-04-15T04:26:39.057Z,98.78
2023-04-15T04:29:05.463Z,98.42
2023-04-15T04:31:31.944Z,99.06
2023-04-15T04:33:58.335Z,98.43
2023-04-15T04:36:26.088Z,98.79
2023-04-15T04:38:52.466Z,99.31
2023-04-15T04:41:18.808Z,98.82
2023-04-15T04:43:45.208Z,98.45
2023-04-15T04:46:11.626Z,98.65
2023-04-15T04:48:38.119Z,98.60
2023-04-15T04:51:04.709Z,99.23
2023-04-15T04:53:32.513Z,98.80
2023-04-15T04:55:58.893Z,98.31
2023-04-15T04:58:25.673Z,99.18
2023-04-15T05:00:52.141Z,98.63
2023-04-15T05:03:18.892Z,99.12
2023-04-15T05:05:45.585Z,98.89
2023-04-15T05:08:11.976Z,99.02
2023-04-15T05:10:39.898Z,98.87
2023-04-15T05:13:06.459Z,98.41
2023-04-15T05:15:32.920Z,98.91
2023-04-15T05:17:59.330Z,98.67
2023-04-15T05:20:25.813Z,98.92
2023-04-15T05:22:52.182Z,98.92
2023-04-15T05:25:18.575Z,98.65
2023-04-15T05:27:46.338Z,98.71
2023-04-15T05:30:13.752Z,98.79
2023-04-15T05:32:40.407Z,99.00
2023-04-15T05:35:07.453Z,98.11
2023-04-15T05:37:33.872Z,98.62
2023-04-15T05:40:00.311Z,98.78
2023-04-15T05:42:26.747Z,98.94
2023-04-15T05:44:54.498Z,99.19
2023-04-15T05:47:20.915Z,98.53
2023-04-15T05:49:47.311Z,98.71
2023-04-15T05:52:13.717Z,98.95
2023-04-15T05:54:40.111Z,98.63
2023-04-15T05:57:06.519Z,98.54
2023-04-15T05:59:32.912Z,98.81
2023-04-15T06:02:00.768Z,99.15
2023-04-15T06:04:27.617Z,99.15
2023-04-15T06:06:54.086Z,99.57
2023-04-15T06:09:20.468Z,98.91
2023-04-15T06:11:47.207Z,98.98
2023-04-15T06:14:13.581Z,98.78
2023-04-15T06:16:40.122Z,98.83
2023-04-15T06:19:07.951Z,98.69
2023-04-15T06:21:34.450Z,98.54
2023-04-15T06:24:00.853Z,99.11
2023-04-15T06:26:27.279Z,99.24
2023-04-15T06:28:53.806Z,98.87
2023-04-15T06:31:20.291Z,98.96
2023-04-15T06:33:46.674Z,98.53
2023-04-15T06:36:14.503Z,98.86
2023-04-15T06:38:40.830Z,98.86
2023-04-15T06:41:07.307Z,99.34
2023-04-15T06:43:33.731Z,99.07
2023-04-15T06:46:00.200Z,99.05
2023-04-15T06:48:26.698Z,98.94
2023-04-15T06:50:53.160Z,98.84
2023-04-15T06:53:20.895Z,99.09
2023-04-15T06:55:47.327Z,98.86
2023-04-15T06:58:18.058Z,99.09
2023-04-15T07:00:49.397Z,99.38
2023-04-15T07:03:18.988Z,99.51
2023-04-15T07:05:50.644Z,98.75
2023-04-15T07:08:23.215Z,99.14
2023-04-15T07:10:50.022Z,99.06
2023-04-15T07:13:19.656Z,99.70
2023-04-15T07:15:49.352Z,99.40
2023-04-15T07:18:18.617Z,99.50
2023-04-15T07:20:48.778Z,99.64
2023-04-15T07:23:22.822Z,99.07
2023-04-15T07:25:49.436Z,99.68
2023-04-15T07:28:22.199Z,99.83
2023-04-15T07:30:49.158Z,99.79
2023-04-15T07:33:21.715Z,99.53
2023-04-15T07:35:48.397Z,99.20
2023-04-15T07:38:17.181Z,98.95
2023-04-15T07:40:49.466Z,99.85
2023-04-15T07:43:22.118Z,99.38
2023-04-15T07:45:48.598Z,99.55
2023-04-15T07:48:21.476Z,99.41
2023-04-15T07:50:50.102Z,99.79
2023-04-15T07:53:19.417Z,99.67
2023-04-15T07:55:56.702Z,99.86
2023-04-15T07:58:23.483Z,99.69
2023-04-15T08:00:50.174Z,99.61
2023-04-15T08:03:18.921Z,99.47
2023-04-15T08:05:49.598Z,99.69
2023-04-15T08:08:22.303Z,99.58
2023-04-15T08:10:51.404Z,100.00
2023-04-15T08:13:20.421Z,99.68
2023-04-15T08:15:53.988Z,99.92
2023-04-15T08:18:20.468Z,100.00
2023-04-15T08:20:52.474Z,99.95
2023-04-15T08:23:19.208Z,99.97
2023-04-15T08:25:49.055Z,100.00
2023-04-15T08:28:18.184Z,100.00
2023-04-15T08:30:52.651Z,100.00
2023-04-15T08:33:19.292Z,100.00
2023-04-15T08:35:51.763Z,99.84
2023-04-15T08:38:18.590Z,100.00
2023-04-15T08:40:48.310Z,99.83
2023-04-15T08:43:22.654Z,100.00
2023-04-15T08:45:52.449Z,99.72
2023-04-15T08:48:19.580Z,100.00
2023-04-15T08:50:47.019Z,100.00
2023-04-15T08:53:19.377Z,100.00
2023-04-15T08:55:51.175Z,100.00
2023-04-15T08:58:20.794Z,99.48
2023-04-15T09:00:47.444Z,99.94
2023-04-15T09:03:17.381Z,99.63
2023-04-15T09:05:46.455Z,99.31
2023-04-15T09:08:13.025Z,99.82
2023-04-15T09:10:39.668Z,99.16
2023-04-15T09:13:06.483Z,99.73
2023-04-15T09:15:33.241Z,99.30
2023-04-15T09:17:59.691Z,99.70
2023-04-15T09:20:27.510Z,99.44
2023-04-15T09:22:56.865Z,99.85
2023-04-15T09:25:28.365Z,99.48
2023-04-15T09:27:56.563Z,99.19
2023-04-15T09:30:23.517Z,99.32
2023-04-15T09:32:51.254Z,99.54
2023-04-15T09:35:20.440Z,99.58
2023-04-15T09:37:51.073Z,99.35
2023-04-15T09:40:32.358Z,99.76
2023-04-15T09:42:59.428Z,99.47
2023-04-15T09:45:29.396Z,99.21
2023-04-15T09:48:21.669Z,99.12
2023-04-15T09:50:49.128Z,99.28
2023-04-15T09:53:22.136Z,99.29
2023-04-15T09:55:51.106Z,99.51
2023-04-15T09:58:18.420Z,99.88
2023-04-15T10:00:52.905Z,99.73
2023-04-15T10:03:21.742Z,99.78
2023-04-15T10:05:49.657Z,99.87
2023-04-15T10:08:24.273Z,99.68
2023-04-15T10:10:52.035Z,99.63
2023-04-15T10:13:21.181Z,99.81
2023-04-15T10:15:51.855Z,100.00
2023-04-15T10:18:21.126Z,99.03
2023-04-15T10:20:50.715Z,99.27
2023-04-15T10:23:19.818Z,99.59
2023-04-15T10:25:49.510Z,99.97
2023-04-15T10:28:20.442Z,99.73
2023-04-15T10:30:49.365Z,99.66
2023-04-15T10:33:24.421Z,99.54
2023-04-15T10:35:52.987Z,99.15
2023-04-15T10:38:35.414Z,99.04
2023-04-15T10:41:21.235Z,99.19
2023-04-15T10:43:56.663Z,99.72
2023-04-15T10:46:34.179Z,99.61
2023-04-15T10:49:07.956Z,99.71
2023-04-15T10:51:38.355Z,99.62
2023-04-15T10:54:08.885Z,99.33
2023-04-15T10:56:35.888Z,99.16
2023-04-15T10:59:05.291Z,99.65
2023-04-15T11:02:01.037Z,99.67
2023-04-15T11:04:52.977Z,99.49
2023-04-15T11:07:37.059Z,99.14
2023-04-15T11:10:52.020Z,99.53
2023-04-15T11:13:21.224Z,99.51
2023-04-15T11:15:50.069Z,98.96
2023-04-15T11:18:19.558Z,98.52
2023-04-15T11:20:48.538Z,99.09
2023-04-15T11:23:19.488Z,99.05
2023-04-15T11:25:50.200Z,99.00
2023-04-15T11:28:18.989Z,99.03
2023-04-15T11:30:47.535Z,98.97
2023-04-15T11:33:17.809Z,98.54
2023-04-15T11:35:49.343Z,98.59
2023-04-15T11:38:19.270Z,99.33
2023-04-15T11:40:50.885Z,98.65
2023-04-15T11:43:22.691Z,99.49
2023-04-15T11:45:51.995Z,99.16
2023-04-15T11:48:19.439Z,98.83
2023-04-15T11:50:54.229Z,99.34
2023-04-15T11:53:21.046Z,99.89
2023-04-15T11:55:53.127Z,99.29
2023-04-15T11:58:23.857Z,99.98
2023-04-15T12:00:55.389Z,99.06
2023-04-15T12:03:24.585Z,99.01
2023-04-15T12:06:11.819Z,99.16
2023-04-15T12:09:10.426Z,98.97
2023-04-15T12:11:41.317Z,98.73
2023-04-15T12:14:10.366Z,99.46
2023-04-15T12:16:48.583Z,98.83
2023-04-15T12:19:23.890Z,99.20
2023-04-15T12:21:50.828Z,99.22
2023-04-15T12:24:21.370Z,98.88
2023-04-15T12:26:51.387Z,98.69
2023-04-15T12:29:22.116Z,97.89
2023-04-15T12:31:53.168Z,98.28
2023-04-15T12:34:27.366Z,97.91
2023-04-15T12:36:54.268Z,97.76
2023-04-15T12:39:22.754Z,98.78
2023-04-15T12:41:50.770Z,97.99
2023-04-15T12:44:22.235Z,98.46
2023-04-15T12:46:49.205Z,99.31
2023-04-15T12:49:22.464Z,99.21
2023-04-15T12:51:50.753Z,98.25
2023-04-15T12:54:17.887Z,98.67
2023-04-15T12:56:44.895Z,97.51
2023-04-15T12:59:12.748Z,97.35
2023-04-15T13:01:39.526Z,97.39
2023-04-15T13:04:06.391Z,96.98
2023-04-15T13:06:33.335Z,96.88
2023-04-15T13:08:59.909Z,97.18
2023-04-15T13:11:26.289Z,98.14
2023-04-15T13:13:52.728Z,98.17
2023-04-15T13:16:20.614Z,97.80
2023-04-15T13:18:47.183Z,97.81
2023-04-15T13:21:13.659Z,97.11
2023-04-15T13:23:41.158Z,97.86
2023-04-15T13:26:07.820Z,98.28
2023-04-15T13:28:34.269Z,97.78
2023-04-15T13:31:00.717Z,97.97
2023-04-15T13:33:28.637Z,97.41
2023-04-15T13:35:55.205Z,98.32
2023-04-15T13:38:24.260Z,97.97
2023-04-15T13:40:50.803Z,98.24
2023-04-15T13:43:17.443Z,97.69
2023-04-15T13:45:44.031Z,96.98
2023-04-15T13:48:10.539Z,98.18
2023-04-15T13:50:40.078Z,97.39
2023-04-15T13:53:08.082Z,97.69
2023-04-15T13:55:34.571Z,97.80
2023-04-15T13:58:00.991Z,97.86
2023-04-15T14:00:28.881Z,97.45
2023-04-15T14:02:55.342Z,97.58
2023-04-15T14:05:21.865Z,98.59
2023-04-15T14:07:49.556Z,97.92
2023-04-15T14:10:16.009Z,98.68
2023-04-15T14:12:42.377Z,97.79
2023-04-15T14:15:09.635Z,98.81
2023-04-15T14:17:36.284Z,98.26
2023-04-15T14:20:03.150Z,98.48
2023-04-15T14:22:29.598Z,98.47
2023-04-15T14:24:57.332Z,98.84
2023-04-15T14:27:23.749Z,98.44
2023-04-15T14:29:50.216Z,98.40
2023-04-15T14:34:43.246Z,98.43
2023-04-15T14:37:09.646Z,98.54
2023-04-15T14:39:36.024Z,98.34
2023-04-15T14:42:03.802Z,98.72
2023-04-15T14:46:56.706Z,99.06
2023-04-15T14:49:23.214Z,98.86
2023-04-15T14:51:49.756Z,98.08
2023-04-15T14:54:17.825Z,98.52
2023-04-15T14:56:47.264Z,98.92
2023-04-15T14:59:15.346Z,98.97
2023-04-15T15:01:41.894Z,98.58
2023-04-15T15:04:10.024Z,98.68
2023-04-15T15:06:36.703Z,98.64
2023-04-15T15:09:03.382Z,98.74
2023-04-15T15:11:32.506Z,98.70
2023-04-15T15:13:58.992Z,98.63
2023-04-15T15:16:28.209Z,98.94
2023-04-15T15:18:55.302Z,98.55
2023-04-15T15:21:21.731Z,98.75
2023-04-15T15:23:48.115Z,98.14
2023-04-15T15:26:14.674Z,97.95
2023-04-15T15:28:41.107Z,97.85
2023-04-15T15:31:07.664Z,98.50
2023-04-15T15:33:35.386Z,98.49
2023-04-15T15:36:03.092Z,98.35
2023-04-15T15:38:29.482Z,98.84
2023-04-15T15:40:55.902Z,97.45
2023-04-15T15:43:22.289Z,98.60
2023-04-15T15:45:48.839Z,99.32
2023-04-15T15:48:15.351Z,98.18
2023-04-15T15:50:44.955Z,98.33
2023-04-15T15:53:11.402Z,98.19
2023-04-15T15:55:37.877Z,99.10
2023-04-15T15:58:04.274Z,98.38
2023-04-15T16:00:30.732Z,98.60
2023-04-15T16:03:06.907Z,98.75
2023-04-15T16:05:34.359Z,97.89
2023-04-15T16:08:02.213Z,98.39
2023-04-15T16:10:28.644Z,98.71
2023-04-15T16:12:55.229Z,98.90
2023-04-15T16:15:22.346Z,98.88
2023-04-15T16:17:48.860Z,98.39
2023-04-15T16:20:15.447Z,98.54
2023-04-15T16:22:42.022Z,98.75
2023-04-15T16:25:10.202Z,98.85
2023-04-15T16:27:54.224Z,98.97
2023-04-15T16:30:24.611Z,99.13
2023-04-15T16:32:51.552Z,98.66
2023-04-15T16:35:20.905Z,98.21
2023-04-15T16:37:47.387Z,98.65
2023-04-15T16:40:15.360Z,97.90
2023-04-15T16:42:41.827Z,98.37
2023-04-15T16:45:08.931Z,98.69
2023-04-15T16:47:35.334Z,98.70
2023-04-15T16:50:01.745Z,99.05
2023-04-15T16:52:28.291Z,99.55
2023-04-15T16:54:54.689Z,98.87
2023-04-15T16:57:22.597Z,98.88
2023-04-15T16:59:51.599Z,99.18
2023-04-15T17:02:18.198Z,98.79
2023-04-15T17:04:44.778Z,99.18
2023-04-15T17:07:11.280Z,98.20
2023-04-15T17:09:38.791Z,98.56
2023-04-15T17:12:05.649Z,98.89
2023-04-15T17:14:33.777Z,98.35
2023-04-15T17:17:00.350Z,98.79
2023-04-15T17:19:27.139Z,98.93
2023-04-15T17:21:55.106Z,99.39
2023-04-15T17:24:21.871Z,99.34
2023-04-15T17:26:48.276Z,99.44
2023-04-15T17:29:14.691Z,99.49
2023-04-15T17:31:42.524Z,98.20
2023-04-15T17:34:10.739Z,98.71
2023-04-15T17:36:38.319Z,99.11
2023-04-15T17:39:04.808Z,98.87
2023-04-15T17:41:31.428Z,99.21
2023-04-15T17:43:57.907Z,99.76
2023-04-15T17:46:24.427Z,100.00
2023-04-15T17:48:52.269Z,99.68
2023-04-15T17:51:18.728Z,99.40
2023-04-15T17:53:45.226Z,99.46
2023-04-15T17:56:11.678Z,99.72
2023-04-15T17:58:38.218Z,100.00
2023-04-15T18:01:04.761Z,99.82
2023-04-15T18:03:31.281Z,99.89
2023-04-15T18:05:59.331Z,99.74
2023-04-15T18:08:25.895Z,99.83
2023-04-15T18:10:52.327Z,100.00
2023-04-15T18:13:18.859Z,100.00
2023-04-15T18:15:48.165Z,100.00
2023-04-15T18:18:14.647Z,100.00
2023-04-15T18:20:41.109Z,100.00
2023-04-15T18:23:08.925Z,99.62
2023-04-15T18:25:35.962Z,100.00
2023-04-15T18:28:02.391Z,100.00
2023-04-15T18:30:28.911Z,100.00
2023-04-15T18:32:55.446Z,100.00
2023-04-15T18:35:21.961Z,100.00
2023-04-15T18:37:48.462Z,100.00
2023-04-15T18:40:17.763Z,100.00
2023-04-15T18:42:44.489Z,100.00
2023-04-15T18:45:12.785Z,100.00
2023-04-15T18:47:41.652Z,100.00
2023-04-15T18:50:08.508Z,100.00
2023-04-15T18:52:38.051Z,100.00
2023-04-15T18:55:05.272Z,100.00
2023-04-15T18:57:35.762Z,100.00
2023-04-15T19:00:06.892Z,100.00
2023-04-15T19:02:35.856Z,100.00
2023-04-15T19:05:02.649Z,100.00
2023-04-15T19:11:19.726Z,99.77
2023-04-15T19:13:47.733Z,100.00
2023-04-15T19:16:17.837Z,100.00
2023-04-15T19:18:44.350Z,100.00
2023-04-15T19:21:11.429Z,100.00
2023-04-15T19:23:38.231Z,100.00
2023-04-15T19:26:04.883Z,100.00
2023-04-15T19:28:33.370Z,100.00
2023-04-15T19:31:01.326Z,99.92
2023-04-15T19:33:27.841Z,99.68
2023-04-15T19:35:54.293Z,99.90
2023-04-15T19:38:20.728Z,100.00
2023-04-15T19:40:47.189Z,100.00
2023-04-15T19:43:13.648Z,100.00
2023-04-15T19:45:40.100Z,100.00
2023-04-15T19:48:07.908Z,100.00
2023-04-15T19:50:34.373Z,100.00
2023-04-15T19:53:00.822Z,100.00
2023-04-15T19:55:27.263Z,99.80
2023-04-15T19:57:53.707Z,100.00
2023-04-15T20:00:20.513Z,100.00
2023-04-15T20:02:47.139Z,100.00
2023-04-15T20:05:14.969Z,100.00
2023-04-15T20:07:44.041Z,100.00
2023-04-15T20:10:12.197Z,100.00
2023-04-15T20:12:50.465Z,100.00
2023-04-15T20:15:19.664Z,100.00
2023-04-15T20:17:46.178Z,100.00
2023-04-15T20:20:12.792Z,100.00
2023-04-15T20:22:40.733Z,100.00
2023-04-15T20:25:07.820Z,100.00
2023-04-15T20:27:34.277Z,100.00
2023-04-15T20:30:03.914Z,100.00
2023-04-15T20:32:30.463Z,100.00
2023-04-15T20:34:57.026Z,100.00
2023-04-15T20:37:23.508Z,100.00
2023-04-15T20:39:51.392Z,100.00
2023-04-15T20:42:34.846Z,100.00
2023-04-15T20:45:08.650Z,100.00
2023-04-15T20:47:53.485Z,100.00
2023-04-15T20:50:26.444Z,100.00
2023-04-15T20:53:00.369Z,100.00
2023-04-15T20:55:32.506Z,100.00
2023-04-15T20:58:03.268Z,99.66
2023-04-15T21:00:32.323Z,100.00
2023-04-15T21:02:59.096Z,100.00
2023-04-15T21:05:27.787Z,100.00
2023-04-15T21:07:54.319Z,100.00
2023-04-15T21:10:21.381Z,100.00
2023-04-15T21:12:49.274Z,100.00
2023-04-15T21:15:21.990Z,100.00
2023-04-15T21:17:51.600Z,100.00
2023-04-15T21:20:20.169Z,100.00
2023-04-15T21:22:48.825Z,100.00
2023-04-15T21:25:21.612Z,100.00
2023-04-15T21:27:49.968Z,100.00
2023-04-15T21:30:22.718Z,100.00
2023-04-15T21:32:50.595Z,100.00
2023-04-15T21:35:19.487Z,100.00
2023-04-15T21:37:47.064Z,100.00
2023-04-15T21:40:37.087Z,100.00
2023-04-15T21:43:05.000Z,100.00
2023-04-15T21:45:34.023Z,100.00
2023-04-15T21:48:08.044Z,100.00
2023-04-15T21:50:35.991Z,100.00
2023-04-15T21:53:02.977Z,100.00
2023-04-15T21:55:29.683Z,100.00
2023-04-15T21:57:56.350Z,100.00
2023-04-15T22:00:24.288Z,100.00
2023-04-15T22:02:51.029Z,100.00
2023-04-15T22:05:17.994Z,100.00
2023-04-15T22:07:45.997Z,100.00
2023-04-15T22:10:18.026Z,100.00
2023-04-15T22:12:50.593Z,100.00
2023-04-15T22:15:18.923Z,100.00
2023-04-15T22:17:49.121Z,100.00
2023-04-15T22:20:15.766Z,100.00
2023-04-15T22:22:44.200Z,100.00
2023-04-15T22:25:11.156Z,100.00
2023-04-15T22:27:37.656Z,100.00
2023-04-15T22:30:05.079Z,100.00
2023-04-15T22:32:31.583Z,100.00
2023-04-15T22:34:59.447Z,100.00
2023-04-15T22:37:25.932Z,100.00
2023-04-15T22:39:52.395Z,100.00
2023-04-15T22:42:18.825Z,100.00
2023-04-15T22:44:45.308Z,100.00
2023-04-15T22:47:11.747Z,100.00
2023-04-15T22:49:38.159Z,100.00
2023-04-15T22:52:06.069Z,100.00
2023-04-15T22:54:32.699Z,100.00
2023-04-15T22:56:59.169Z,100.00
2023-04-15T22:59:25.608Z,100.00
2023-04-15T23:01:52.075Z,100.00
2023-04-15T23:04:23.409Z,100.00
2023-04-15T23:06:54.283Z,100.00
2023-04-15T23:09:22.113Z,100.00
2023-04-15T23:11:48.639Z,100.00
2023-04-15T23:14:16.370Z,100.00
2023-04-15T23:16:44.012Z,100.00
2023-04-15T23:19:17.941Z,100.00
2023-04-15T23:21:44.412Z,100.00
2023-04-15T23:24:11.669Z,100.00
2023-04-15T23:26:39.589Z,100.00
2023-04-15T23:29:07.169Z,100.00
2023-04-15T23:31:33.946Z,100.00
2023-04-15T23:34:00.482Z,100.00
2023-04-15T23:36:26.963Z,100.00
2023-04-15T23:38:53.396Z,100.00
2023-04-15T23:41:22.234Z,100.00
2023-04-15T23:43:50.181Z,100.00
2023-04-15T23:46:18.736Z,100.00
2023-04-15T23:48:45.290Z,100.00
2023-04-15T23:51:11.753Z,100.00
2023-04-15T23:53:38.197Z,100.00
2023-04-15T23:56:05.497Z,100.00
2023-04-15T23:58:33.998Z,100.00
